Time;durP1;ratioP1;P1;durP2;ratioP2;P2;SDS_P1;SDS_P2;PMS_P1;PMS_P2;Temp;Humidity;BMP_temperature;BMP_pressure;BME280_temperature;BME280_humidity;BME280_pressure;Samples;Min_cycle;Max_cycle;Signal;HPM_P1;HPM_P2
2022/09/18 00:02:50;;;;;;;13.00;4.10;;;9.70;99.90;;;;;;9860580;30;20032;-81
2022/09/18 00:07:51;;;;;;;8.47;4.03;;;9.60;99.90;;;;;;9859744;30;20138;-83
2022/09/18 00:12:51;;;;;;;11.00;5.30;;;9.50;99.90;;;;;;9847378;30;20036;-82
2022/09/18 00:17:52;;;;;;;12.50;4.13;;;9.50;99.90;;;;;;9849453;30;20040;-83
2022/09/18 00:22:52;;;;;;;13.20;4.27;;;9.50;99.90;;;;;;9851401;30;20040;-84
2022/09/18 00:27:53;;;;;;;13.90;4.20;;;9.40;99.90;;;;;;9845026;30;20075;-83
2022/09/18 00:32:54;;;;;;;11.23;3.90;;;9.40;99.90;;;;;;9857669;30;20083;-84
2022/09/18 00:37:54;;;;;;;8.60;3.93;;;9.40;99.90;;;;;;9846856;30;20028;-84
2022/09/18 00:42:55;;;;;;;11.20;5.03;;;9.30;99.90;;;;;;9840083;30;20055;-83
2022/09/18 00:47:56;;;;;;;15.53;4.40;;;9.30;99.90;;;;;;9848823;30;20062;-85
2022/09/18 00:53:00;;;;;;;11.17;4.40;;;9.20;99.90;;;;;;9855295;30;20047;-86
2022/09/18 00:58:02;;;;;;;16.83;4.77;;;9.20;99.90;;;;;;9858566;30;20078;-83
2022/09/18 01:03:03;;;;;;;8.40;3.40;;;9.10;99.90;;;;;;9840493;30;20024;-84
2022/09/18 01:08:34;;;;;;;11.23;4.43;;;9.00;99.90;;;;;;9838947;30;20074;-85
2022/09/18 01:13:59;;;;;;;9.87;3.70;;;9.00;99.90;;;;;;9808878;30;20047;-86
2022/09/18 01:19:19;;;;;;;13.50;4.00;;;8.90;99.90;;;;;;9823588;30;20097;-84
2022/09/18 01:24:27;;;;;;;12.00;3.90;;;8.90;99.90;;;;;;9839067;30;20496;-85
2022/09/18 01:29:43;;;;;;;10.20;3.83;;;8.90;99.90;;;;;;9847627;30;20689;-84
2022/09/18 01:35:03;;;;;;;16.70;3.93;;;8.90;99.90;;;;;;9859490;30;20032;-83
2022/09/18 01:40:56;;;;;;;7.63;3.60;;;8.80;99.90;;;;;;9853444;30;20039;-86
2022/09/18 01:46:03;;;;;;;11.27;3.90;;;8.80;99.90;;;;;;9828110;30;20051;-86
2022/09/18 01:51:15;;;;;;;10.70;3.83;;;8.70;99.90;;;;;;9850942;30;20437;-85
2022/09/18 01:56:24;;;;;;;12.47;3.90;;;8.70;99.90;;;;;;9858503;30;20051;-83
2022/09/18 02:01:29;;;;;;;10.03;4.20;;;8.70;99.90;;;;;;9858290;30;20042;-84
2022/09/18 02:06:52;;;;;;;13.88;3.92;;;8.70;99.90;;;;;;9843717;30;20056;-85
2022/09/18 02:11:55;;;;;;;10.23;3.50;;;8.70;99.90;;;;;;9844150;30;20628;-84
2022/09/18 02:17:07;;;;;;;13.43;3.53;;;8.70;99.90;;;;;;9859496;30;20039;-85
2022/09/18 02:22:12;;;;;;;11.17;3.60;;;8.70;99.90;;;;;;9860966;30;20067;-84
2022/09/18 02:27:15;;;;;;;9.47;3.37;;;8.70;99.90;;;;;;9844116;30;20050;-84
2022/09/18 02:32:15;;;;;;;11.03;4.23;;;8.70;99.90;;;;;;9844558;30;20036;-84
2022/09/18 02:37:29;;;;;;;11.53;3.37;;;8.60;99.90;;;;;;9857863;30;20042;-83
2022/09/18 02:42:54;;;;;;;13.97;3.53;;;8.50;99.90;;;;;;9859027;30;20176;-83
2022/09/18 02:48:24;;;;;;;10.47;3.80;;;8.50;99.90;;;;;;9854439;30;20043;-85
2022/09/18 02:53:28;;;;;;;9.93;3.63;;;8.50;99.90;;;;;;9856087;30;20027;-84
2022/09/18 02:58:52;;;;;;;12.20;3.70;;;8.40;99.90;;;;;;9856219;30;20031;-83
2022/09/18 03:03:53;;;;;;;8.47;3.93;;;8.40;99.90;;;;;;9854700;30;20155;-84
2022/09/18 03:08:53;;;;;;;11.13;3.80;;;8.40;99.90;;;;;;9857078;30;20048;-84
2022/09/18 03:13:54;;;;;;;13.83;4.00;;;8.30;99.90;;;;;;9858904;30;20039;-83
2022/09/18 03:18:54;;;;;;;15.77;4.63;;;8.30;99.90;;;;;;9864433;30;20515;-83
2022/09/18 03:23:55;;;;;;;14.37;4.13;;;8.30;99.90;;;;;;9863133;30;20043;-83
2022/09/18 03:28:56;;;;;;;9.50;4.37;;;8.20;99.90;;;;;;9865982;30;20130;-83
2022/09/18 03:33:56;;;;;;;16.07;5.03;;;8.10;99.90;;;;;;9863826;30;20028;-84
2022/09/18 03:38:57;;;;;;;11.33;4.60;;;8.00;99.90;;;;;;9864161;30;20027;-83
2022/09/18 03:43:57;;;;;;;11.70;5.33;;;7.90;99.90;;;;;;9864737;30;20417;-83
2022/09/18 03:48:58;;;;;;;12.33;5.17;;;7.90;99.90;;;;;;9849668;30;20193;-84
2022/09/18 03:53:59;;;;;;;12.30;5.40;;;7.80;99.90;;;;;;9848883;30;20035;-83
2022/09/18 03:58:59;;;;;;;13.97;5.70;;;7.70;99.90;;;;;;9863167;30;20228;-83
2022/09/18 04:04:00;;;;;;;14.80;6.47;;;7.70;99.90;;;;;;9864675;30;20798;-82
2022/09/18 04:09:01;;;;;;;15.27;6.13;;;7.70;99.90;;;;;;9864112;30;20109;-83
2022/09/18 04:14:01;;;;;;;15.40;6.40;;;7.70;99.90;;;;;;9860544;30;20032;-83
2022/09/18 04:19:02;;;;;;;20.23;7.10;;;7.70;99.90;;;;;;9848530;30;20048;-83
2022/09/18 04:24:03;;;;;;;17.53;7.13;;;7.70;99.90;;;;;;9860052;30;20666;-82
2022/09/18 04:29:04;;;;;;;17.67;7.93;;;7.70;99.90;;;;;;9864578;30;20453;-82
2022/09/18 04:34:04;;;;;;;19.00;7.80;;;7.60;99.90;;;;;;9863490;30;20854;-83
2022/09/18 04:39:05;;;;;;;11.50;6.50;;;7.70;99.90;;;;;;9863586;30;20177;-83
2022/09/18 04:44:06;;;;;;;15.70;6.80;;;7.70;99.90;;;;;;9862373;30;20067;-84
2022/09/18 04:49:06;;;;;;;18.17;7.40;;;7.80;99.90;;;;;;9846914;30;20040;-85
2022/09/18 04:54:08;;;;;;;12.87;7.47;;;7.80;99.90;;;;;;9846341;30;20042;-82
2022/09/18 04:59:08;;;;;;;14.07;7.43;;;7.90;99.90;;;;;;9862564;30;20031;-82
2022/09/18 05:04:09;;;;;;;14.20;7.27;;;7.90;99.90;;;;;;9862892;30;20498;-83
2022/09/18 05:09:10;;;;;;;14.17;7.23;;;7.90;99.90;;;;;;9861678;30;20066;-82
2022/09/18 05:14:11;;;;;;;11.57;5.87;;;7.90;99.90;;;;;;9861855;30;20032;-83
2022/09/18 05:19:11;;;;;;;12.67;6.03;;;8.00;99.90;;;;;;9861233;30;20445;-82
2022/09/18 05:24:12;;;;;;;18.03;7.47;;;8.00;99.90;;;;;;9860436;30;20035;-81
2022/09/18 05:29:13;;;;;;;13.20;6.50;;;8.00;99.90;;;;;;9861569;30;20040;-82
2022/09/18 05:34:14;;;;;;;12.47;5.57;;;8.10;99.90;;;;;;9862397;30;20057;-82
2022/09/18 05:39:14;;;;;;;25.73;9.93;;;8.20;99.90;;;;;;9844795;30;20093;-83
2022/09/18 05:44:15;;;;;;;23.63;12.63;;;8.30;99.90;;;;;;9860398;30;20060;-82
2022/09/18 05:49:15;;;;;;;27.43;11.87;;;8.40;99.90;;;;;;9860573;30;20458;-80
2022/09/18 05:54:16;;;;;;;26.00;12.23;;;8.50;99.90;;;;;;9858916;30;20496;-81
2022/09/18 05:59:17;;;;;;;24.07;11.93;;;8.50;99.90;;;;;;9857466;30;20027;-81
2022/09/18 06:04:17;;;;;;;26.83;11.83;;;8.60;99.90;;;;;;9859867;30;20396;-83
2022/09/18 06:09:18;;;;;;;26.07;11.17;;;8.60;99.90;;;;;;9860678;30;20051;-81
2022/09/18 06:14:18;;;;;;;23.80;12.77;;;8.80;99.90;;;;;;9853606;30;20505;-83
2022/09/18 06:19:19;;;;;;;20.37;10.80;;;8.90;99.90;;;;;;9860946;30;20040;-80
2022/09/18 06:24:19;;;;;;;15.07;8.90;;;9.00;99.90;;;;;;9857970;30;20507;-82
2022/09/18 06:29:20;;;;;;;13.53;7.80;;;9.00;99.90;;;;;;9858755;30;20121;-82
2022/09/18 06:34:20;;;;;;;12.33;7.47;;;9.10;99.90;;;;;;9860186;30;20036;-82
2022/09/18 06:39:21;;;;;;;17.10;7.33;;;9.10;99.90;;;;;;9858522;30;20035;-82
2022/09/18 06:44:22;;;;;;;15.60;8.23;;;9.20;99.90;;;;;;9860568;30;20522;-83
2022/09/18 06:49:22;;;;;;;14.73;6.73;;;9.20;99.90;;;;;;9861364;30;20044;-81
2022/09/18 06:54:23;;;;;;;13.40;7.10;;;9.30;99.90;;;;;;9867892;30;20030;-81
2022/09/18 06:59:23;;;;;;;12.33;7.47;;;9.40;99.90;;;;;;9867552;30;20406;-81
2022/09/18 07:04:24;;;;;;;14.17;7.87;;;9.50;99.90;;;;;;9866453;30;20028;-80
2022/09/18 07:09:24;;;;;;;13.97;7.67;;;9.50;99.90;;;;;;9866902;30;20505;-80
2022/09/18 07:14:25;;;;;;;15.87;7.93;;;9.60;99.90;;;;;;9867179;30;20247;-83
2022/09/18 07:19:25;;;;;;;12.75;7.07;;;9.60;99.90;;;;;;9865512;30;20108;-82
2022/09/18 07:24:26;;;;;;;12.52;6.65;;;9.70;99.90;;;;;;9866457;30;20142;-81
2022/09/18 07:29:27;;;;;;;13.77;7.15;;;9.60;99.90;;;;;;9866788;30;20130;-80
2022/09/18 07:34:27;;;;;;;11.30;6.82;;;9.80;99.90;;;;;;9866726;30;20036;-80
2022/09/18 07:39:28;;;;;;;17.58;9.73;;;9.90;99.90;;;;;;9866195;30;20114;-80
2022/09/18 07:44:30;;;;;;;16.55;8.05;;;10.10;99.90;;;;;;9866700;30;20059;-80
2022/09/18 07:49:32;;;;;;;13.10;7.40;;;10.10;99.90;;;;;;9866128;30;20058;-80
2022/09/18 07:54:34;;;;;;;10.85;7.03;;;10.10;99.90;;;;;;9853576;30;20040;-82
2022/09/18 07:59:34;;;;;;;11.65;6.50;;;10.20;99.90;;;;;;9865064;30;20654;-80
2022/09/18 08:04:35;;;;;;;32.53;24.52;;;10.10;99.90;;;;;;9863908;30;20155;-80
2022/09/18 08:09:35;;;;;;;17.48;9.88;;;10.10;99.90;;;;;;9863859;30;20051;-81
2022/09/18 08:14:36;;;;;;;8.32;6.43;;;10.20;99.90;;;;;;9864318;30;20540;-81
2022/09/18 08:19:36;;;;;;;7.00;5.22;;;10.30;99.90;;;;;;9864295;30;20028;-80
2022/09/18 08:24:37;;;;;;;12.88;5.57;;;10.30;99.90;;;;;;9862023;30;20036;-81
2022/09/18 08:29:37;;;;;;;13.07;6.88;;;10.20;99.90;;;;;;9861547;30;20051;-80
2022/09/18 08:34:38;;;;;;;18.85;8.70;;;10.20;99.90;;;;;;9862634;30;20457;-80
2022/09/18 08:39:39;;;;;;;14.05;7.43;;;10.40;99.90;;;;;;9862075;30;20027;-82
2022/09/18 08:44:48;;;;;;;14.32;7.00;;;10.70;99.90;;;;;;9862166;30;20459;-79
2022/09/18 08:49:54;;;;;;;11.43;6.85;;;10.70;99.90;;;;;;9860130;30;20074;-79
2022/09/18 08:54:55;;;;;;;;;;;10.50;99.90;;;;;;9862626;30;20190;-80
2022/09/18 09:00:10;;;;;;;9.90;5.70;;;10.40;99.90;;;;;;9854295;30;19918;-81
2022/09/18 09:05:35;;;;;;;13.43;5.87;;;10.40;99.90;;;;;;9861522;30;20055;-82
2022/09/18 09:10:35;;;;;;;14.13;6.53;;;10.30;99.90;;;;;;9860948;30;20340;-80
2022/09/18 09:15:54;;;;;;;13.60;6.32;;;10.40;99.90;;;;;;9861392;30;20061;-80
2022/09/18 09:20:57;;;;;;;13.20;3.55;;;10.70;99.90;;;;;;9861998;30;20028;-81
2022/09/18 09:26:31;;;;;;;4.88;2.97;;;11.00;99.90;;;;;;9860352;30;20115;-79
2022/09/18 09:31:54;;;;;;;6.25;3.40;;;11.60;99.90;;;;;;9845140;30;20078;-80
2022/09/18 09:36:58;;;;;;;7.90;4.75;;;12.00;99.90;;;;;;9856898;30;20032;-81
2022/09/18 09:42:27;;;;;;;4.50;2.83;;;12.00;99.90;;;;;;9860659;30;20028;-80
2022/09/18 09:47:42;;;;;;;6.55;3.10;;;12.30;99.90;;;;;;9859908;30;20055;-81
2022/09/18 09:52:48;;;;;;;4.50;3.22;;;12.20;99.90;;;;;;9856252;30;20031;-81
2022/09/18 09:58:19;;;;;;;7.60;3.33;;;11.90;99.90;;;;;;9860694;30;20019;-80
2022/09/18 10:03:19;;;;;;;3.80;2.67;;;11.90;99.90;;;;;;9821720;30;20044;-83
2022/09/18 10:08:30;;;;;;;7.80;3.63;;;12.00;99.90;;;;;;9856767;30;20069;-82
2022/09/18 10:13:43;;;;;;;4.70;2.78;;;12.10;99.90;;;;;;9855188;30;20143;-82
2022/09/18 10:18:46;;;;;;;3.60;1.80;;;12.70;99.90;;;;;;9853543;30;20032;-80
2022/09/18 10:23:52;;;;;;;2.60;2.05;;;13.30;99.90;;;;;;9852759;30;20742;-85
2022/09/18 10:28:52;;;;;;;2.58;1.67;;;13.50;99.90;;;;;;9853662;30;20557;-82
2022/09/18 10:33:53;;;;;;;3.40;2.17;;;12.80;99.90;;;;;;9855508;30;20063;-83
2022/09/18 10:38:54;;;;;;;3.42;1.30;;;12.20;99.90;;;;;;9854663;30;20036;-82
2022/09/18 10:44:03;;;;;;;2.38;1.38;;;11.70;99.90;;;;;;9853192;30;20109;-85
2022/09/18 10:49:21;;;;;;;2.72;1.90;;;11.00;99.90;;;;;;9841070;30;20554;-84
2022/09/18 10:54:23;;;;;;;4.70;2.75;;;10.50;99.90;;;;;;9850118;30;20150;-84
2022/09/18 10:59:27;;;;;;;4.70;3.20;;;10.30;99.90;;;;;;9825090;30;20032;-83
2022/09/18 11:04:28;;;;;;;17.30;9.55;;;10.70;99.90;;;;;;9839786;30;20040;-84
2022/09/18 11:09:37;;;;;;;8.90;4.75;;;10.90;99.90;;;;;;9850606;30;20043;-83
2022/09/18 11:14:42;;;;;;;6.60;2.95;;;11.00;99.90;;;;;;9837814;30;20765;-83
2022/09/18 11:19:50;;;;;;;7.38;4.15;;;11.20;99.90;;;;;;9850382;30;20020;-83
2022/09/18 11:25:20;;;;;;;12.40;5.65;;;11.80;99.90;;;;;;9851746;30;20035;-84
2022/09/18 11:30:26;;;;;;;12.60;6.00;;;11.70;99.90;;;;;;9854625;30;20536;-84
2022/09/18 11:35:29;;;;;;;7.50;4.90;;;11.30;99.90;;;;;;9857626;30;20419;-83
2022/09/18 11:40:43;;;;;;;9.02;5.03;;;11.00;99.90;;;;;;9862004;30;20066;-83
2022/09/18 11:45:49;;;;;;;5.05;2.97;;;11.00;99.90;;;;;;9823960;30;20071;-84
2022/09/18 11:50:55;;;;;;;5.05;3.10;;;11.80;99.90;;;;;;9827371;30;20087;-82
2022/09/18 11:56:07;;;;;;;8.55;3.58;;;12.10;99.90;;;;;;9827062;30;20591;-82
2022/09/18 12:01:33;;;;;;;3.65;1.25;;;12.00;99.90;;;;;;9827341;30;20398;-82
2022/09/18 12:07:01;;;;;;;1.77;1.23;;;12.10;99.90;;;;;;9824512;30;20064;-84
2022/09/18 12:12:20;;;;;;;4.95;2.70;;;12.70;99.90;;;;;;9808817;30;20114;-84
2022/09/18 12:17:28;;;;;;;5.70;2.88;;;13.10;99.90;;;;;;9823980;30;20038;-84
2022/09/18 12:22:58;;;;;;;6.55;3.30;;;12.40;99.90;;;;;;9824108;30;20063;-83
2022/09/18 12:28:08;;;;;;;14.65;5.65;;;11.80;99.90;;;;;;9824450;30;20105;-82
2022/09/18 12:33:45;;;;;;;18.58;8.70;;;11.60;99.90;;;;;;9825234;30;20043;-84
2022/09/18 12:38:45;;;;;;;;;;;11.30;99.90;;;;;;9826762;30;20251;-82
2022/09/18 12:44:18;;;;;;;5.53;2.80;;;11.00;99.90;;;;;;9840390;30;19952;-82
2022/09/18 12:49:40;;;;;;;3.88;2.67;;;10.80;99.90;;;;;;9863426;30;20564;-84
2022/09/18 12:55:08;;;;;;;2.08;1.55;;;10.70;99.90;;;;;;9861859;30;20451;-84
2022/09/18 13:00:12;;;;;;;1.92;1.00;;;10.60;99.90;;;;;;9844314;30;20071;-84
2022/09/18 13:05:28;;;;;;;1.13;1.00;;;10.60;99.90;;;;;;9862197;30;20097;-84
2022/09/18 13:10:34;;;;;;;;;;;10.50;99.90;;;;;;9860326;30;20054;-83
2022/09/18 13:15:59;;;;;;;1.90;1.53;;;10.60;99.90;;;;;;9862661;30;19917;-84
2022/09/18 13:21:03;;;;;;;9.93;4.57;;;10.50;99.90;;;;;;9857587;30;20032;-83
2022/09/18 13:26:08;;;;;;;5.90;3.40;;;10.50;99.90;;;;;;9845925;30;20023;-84
2022/09/18 13:31:27;;;;;;;2.65;1.83;;;10.50;99.90;;;;;;9844441;30;20404;-85
2022/09/18 13:36:39;;;;;;;12.20;5.35;;;10.50;99.90;;;;;;9857564;30;20020;-83
2022/09/18 13:41:45;;;;;;;6.05;2.72;;;10.40;99.90;;;;;;9858606;30;20031;-84
2022/09/18 13:46:48;;;;;;;3.83;2.23;;;10.30;99.90;;;;;;9843472;30;20060;-84
2022/09/18 13:51:49;;;;;;;13.10;6.03;;;10.10;99.90;;;;;;9854278;30;20042;-86
2022/09/18 13:57:01;;;;;;;8.70;5.18;;;10.20;99.90;;;;;;9859123;30;20035;-83
2022/09/18 14:02:02;;;;;;;7.53;4.30;;;10.20;99.90;;;;;;9859723;30;20031;-85
2022/09/18 14:07:03;;;;;;;9.40;5.03;;;10.00;99.90;;;;;;9859956;30;20047;-86
2022/09/18 14:12:11;;;;;;;11.80;3.80;;;9.90;99.90;;;;;;9861028;30;20485;-85
2022/09/18 14:17:13;;;;;;;10.13;4.17;;;9.80;99.90;;;;;;9860417;30;20666;-85
2022/09/18 14:22:27;;;;;;;11.57;4.13;;;9.80;99.90;;;;;;9860338;30;20055;-86
2022/09/18 14:27:55;;;;;;;12.37;3.43;;;9.70;99.90;;;;;;9843900;30;20072;-86
2022/09/18 14:33:13;;;;;;;13.67;4.43;;;9.70;99.90;;;;;;9857938;30;20042;-85
2022/09/18 14:38:31;;;;;;;14.35;4.75;;;9.80;99.90;;;;;;9843783;30;20492;-86
2022/09/18 14:43:31;;;;;;;13.18;3.75;;;9.90;99.90;;;;;;9858729;30;20051;-85
2022/09/18 14:48:37;;;;;;;14.00;3.55;;;10.10;99.90;;;;;;9843752;30;20071;-86
2022/09/18 14:53:42;;;;;;;13.00;3.08;;;10.10;99.90;;;;;;9843900;30;20054;-87
2022/09/18 14:58:45;;;;;;;11.95;4.13;;;10.20;99.90;;;;;;9835376;30;20036;-86
2022/09/18 15:03:49;;;;;;;11.13;4.72;;;10.30;99.90;;;;;;9838248;30;20148;-85
2022/09/18 15:08:52;;;;;;;16.08;6.15;;;10.30;99.90;;;;;;9856622;30;20775;-84
2022/09/18 15:13:55;;;;;;;23.85;12.70;;;10.30;99.90;;;;;;9854404;30;20032;-84
2022/09/18 15:18:56;;;;;;;30.08;14.48;;;10.20;99.90;;;;;;9870176;30;20138;-83
2022/09/18 15:24:00;;;;;;;30.35;18.10;;;10.10;99.90;;;;;;9850441;30;20032;-84
2022/09/18 15:29:03;;;;;;;22.65;8.90;;;10.20;99.90;;;;;;9848441;30;20680;-84
2022/09/18 15:34:17;;;;;;;28.85;16.90;;;10.20;99.90;;;;;;9860920;30;20525;-83
2022/09/18 15:39:32;;;;;;;16.20;7.63;;;10.20;99.90;;;;;;9847060;30;20089;-83
2022/09/18 15:44:32;;;;;;;27.00;12.50;;;10.30;99.90;;;;;;9859772;30;20060;-83
2022/09/18 15:49:33;;;;;;;39.75;20.88;;;10.30;99.90;;;;;;9864374;30;20057;-84
2022/09/18 15:54:34;;;;;;;81.70;32.33;;;10.30;99.90;;;;;;9866039;30;20044;-83
2022/09/18 15:59:38;;;;;;;60.65;27.48;;;10.30;99.90;;;;;;9858375;30;20044;-84
2022/09/18 16:04:38;;;;;;;71.07;28.45;;;10.40;99.90;;;;;;9848687;30;20127;-84
2022/09/18 16:09:42;;;;;;;28.33;12.52;;;10.40;99.90;;;;;;9846198;30;20067;-83
2022/09/18 16:14:46;;;;;;;26.40;12.48;;;10.50;99.90;;;;;;9858780;30;20063;-84
2022/09/18 16:19:46;;;;;;;29.50;16.52;;;10.50;99.90;;;;;;9863953;30;20050;-83
2022/09/18 16:24:48;;;;;;;25.60;12.90;;;10.40;99.90;;;;;;9863098;30;20063;-83
2022/09/18 16:29:49;;;;;;;42.25;19.90;;;10.30;99.90;;;;;;9861609;30;20404;-83
2022/09/18 16:34:49;;;;;;;50.55;28.73;;;10.10;99.90;;;;;;9863257;30;20046;-83
2022/09/18 16:39:50;;;;;;;45.35;22.05;;;10.00;99.90;;;;;;9859729;30;20066;-83
2022/09/18 16:44:51;;;;;;;136.63;54.85;;;9.90;99.90;;;;;;9861514;30;20087;-83
2022/09/18 16:49:51;;;;;;;250.30;109.03;;;9.80;99.90;;;;;;9861483;30;20051;-83
2022/09/18 16:54:52;;;;;;;180.70;75.83;;;9.70;99.90;;;;;;9859299;30;20456;-83
2022/09/18 16:59:53;;;;;;;236.73;88.70;;;9.50;99.90;;;;;;9861752;30;20040;-83
2022/09/18 17:04:54;;;;;;;126.77;48.67;;;9.50;99.90;;;;;;9862575;30;20043;-84
2022/09/18 17:09:55;;;;;;;46.87;22.03;;;9.40;99.90;;;;;;9859072;30;20052;-82
2022/09/18 17:14:56;;;;;;;70.60;35.77;;;9.30;99.90;;;;;;9861134;30;20071;-83
2022/09/18 17:19:56;;;;;;;103.77;47.97;;;9.10;99.90;;;;;;9862422;30;20558;-83
2022/09/18 17:24:57;;;;;;;137.40;64.40;;;8.80;99.90;;;;;;9860784;30;20396;-84
2022/09/18 17:29:58;;;;;;;124.97;62.97;;;8.50;99.90;;;;;;9857137;30;20044;-85
2022/09/18 17:34:59;;;;;;;111.57;54.40;;;8.40;99.90;;;;;;9861344;30;20043;-86
2022/09/18 17:40:00;;;;;;;129.73;61.80;;;8.40;99.90;;;;;;9861153;30;20528;-84
2022/09/18 17:45:01;;;;;;;93.27;43.03;;;8.60;99.90;;;;;;9844046;30;20068;-84
2022/09/18 17:50:04;;;;;;;76.60;36.37;;;8.70;99.90;;;;;;9859339;30;20131;-84
2022/09/18 17:55:05;;;;;;;79.23;36.37;;;8.60;99.90;;;;;;9843934;30;20039;-84
2022/09/18 18:00:08;;;;;;;120.53;59.40;;;8.50;99.90;;;;;;9843939;30;20043;-84
2022/09/18 18:05:09;;;;;;;132.67;62.57;;;8.30;99.90;;;;;;9858526;30;20031;-83
2022/09/18 18:10:09;;;;;;;87.63;39.07;;;8.30;99.90;;;;;;9859645;30;20043;-84
2022/09/18 18:15:10;;;;;;;53.90;21.33;;;8.40;99.90;;;;;;9854255;30;20053;-83
2022/09/18 18:20:10;;;;;;;38.63;17.80;;;8.50;99.90;;;;;;9857119;30;20501;-83
2022/09/18 18:25:11;;;;;;;45.43;22.60;;;8.50;99.90;;;;;;9842039;30;20047;-82
2022/09/18 18:30:15;;;;;;;66.23;28.87;;;8.60;99.90;;;;;;9857670;30;20050;-83
2022/09/18 18:35:15;;;;;;;47.27;21.83;;;8.50;99.90;;;;;;9858326;30;20034;-83
2022/09/18 18:40:16;;;;;;;71.83;35.97;;;8.40;99.90;;;;;;9840524;30;20046;-83
2022/09/18 18:45:17;;;;;;;95.53;45.63;;;8.40;99.90;;;;;;9841929;30;20059;-83
2022/09/18 18:50:19;;;;;;;57.20;25.50;;;8.40;99.90;;;;;;9848754;30;20051;-83
2022/09/18 18:55:19;;;;;;;49.53;22.23;;;8.50;99.90;;;;;;9866052;30;20032;-84
2022/09/18 19:00:26;;;;;;;65.83;32.17;;;8.50;99.90;;;;;;9861918;30;20038;-84
2022/09/18 19:05:29;;;;;;;127.47;53.23;;;8.40;99.90;;;;;;9855648;30;20043;-84
2022/09/18 19:10:30;;;;;;;128.33;54.03;;;8.30;99.90;;;;;;9846966;30;20047;-83
2022/09/18 19:15:31;;;;;;;213.37;87.77;;;8.10;99.90;;;;;;9865794;30;20493;-83
2022/09/18 19:20:33;;;;;;;132.77;61.00;;;8.10;99.90;;;;;;9865523;30;20043;-84
2022/09/18 19:25:34;;;;;;;105.23;48.27;;;7.90;99.90;;;;;;9847375;30;20031;-84
2022/09/18 19:30:36;;;;;;;100.77;46.43;;;8.10;99.90;;;;;;9864588;30;20048;-83
2022/09/18 19:35:37;;;;;;;93.67;45.43;;;8.10;99.90;;;;;;9864038;30;20139;-84
2022/09/18 19:40:38;;;;;;;83.87;40.23;;;7.90;99.90;;;;;;9862751;30;20034;-84
2022/09/18 19:45:40;;;;;;;71.77;32.63;;;7.80;99.90;;;;;;9864137;30;21240;-83
2022/09/18 19:50:41;;;;;;;50.20;21.43;;;7.50;99.90;;;;;;9865222;30;20059;-84
2022/09/18 19:55:46;;;;;;;46.27;21.37;;;7.50;99.90;;;;;;9864501;30;20055;-84
2022/09/18 20:00:47;;;;;;;43.77;19.80;;;7.30;99.90;;;;;;9861286;30;20036;-84
2022/09/18 20:05:47;;;;;;;39.80;20.23;;;7.20;99.90;;;;;;9864437;30;20570;-84
2022/09/18 20:10:48;;;;;;;97.17;46.43;;;7.20;99.90;;;;;;9863038;30;20518;-83
2022/09/18 20:16:00;;;;;;;106.13;49.80;;;7.10;99.90;;;;;;9858866;30;20453;-84
2022/09/18 20:21:08;;;;;;;71.17;34.40;;;7.30;99.90;;;;;;9863102;30;20038;-84
2022/09/18 20:26:11;;;;;;;55.23;27.03;;;7.50;99.90;;;;;;9863330;30;20035;-83
2022/09/18 20:31:14;;;;;;;69.30;34.53;;;7.70;99.90;;;;;;9860572;30;20035;-85
2022/09/18 20:36:14;;;;;;;53.87;27.13;;;7.80;99.90;;;;;;9864901;30;20037;-84
2022/09/18 20:41:15;;;;;;;46.83;24.50;;;7.60;99.90;;;;;;9863310;30;20189;-84
2022/09/18 20:46:16;;;;;;;47.70;22.90;;;7.50;99.90;;;;;;9845462;30;20060;-84
2022/09/18 20:51:18;;;;;;;58.73;27.50;;;7.40;99.90;;;;;;9857015;30;20511;-84
2022/09/18 20:56:21;;;;;;;58.20;29.47;;;7.20;99.90;;;;;;9855851;30;20071;-84
2022/09/18 21:01:25;;;;;;;51.43;25.97;;;7.10;99.90;;;;;;9855588;30;20031;-84
2022/09/18 21:06:32;;;;;;;55.77;25.83;;;7.10;99.90;;;;;;9862346;30;20182;-85
2022/09/18 21:11:39;;;;;;;45.63;21.57;;;7.30;99.90;;;;;;9843453;30;20122;-85
2022/09/18 21:16:41;;;;;;;43.77;22.47;;;7.60;99.90;;;;;;9839349;30;20126;-83
2022/09/18 21:21:42;;;;;;;46.53;23.30;;;7.70;99.90;;;;;;9862237;30;20709;-84
2022/09/18 21:26:47;;;;;;;54.23;28.17;;;7.90;99.90;;;;;;9862237;30;20058;-84
2022/09/18 21:31:50;;;;;;;83.50;40.28;;;8.00;99.90;;;;;;9861796;30;20182;-84
2022/09/18 21:36:58;;;;;;;87.03;43.97;;;8.00;99.90;;;;;;9843962;30;20035;-85
2022/09/18 21:42:01;;;;;;;65.37;31.27;;;8.10;99.90;;;;;;9858825;30;20437;-84
2022/09/18 21:47:04;;;;;;;50.20;24.10;;;8.20;99.90;;;;;;9844988;30;20044;-84
2022/09/18 21:52:06;;;;;;;48.13;23.20;;;8.40;99.90;;;;;;9856797;30;20042;-84
2022/09/18 21:57:07;;;;;;;129.23;63.03;;;8.40;99.90;;;;;;9861722;30;20046;-84
2022/09/18 22:02:08;;;;;;;101.83;52.87;;;8.40;99.90;;;;;;9857660;30;20511;-84
2022/09/18 22:07:09;;;;;;;62.93;34.47;;;8.40;99.90;;;;;;9840867;30;20052;-84
2022/09/18 22:12:11;;;;;;;51.70;29.20;;;8.40;99.90;;;;;;9854907;30;20065;-84
2022/09/18 22:17:12;;;;;;;75.43;37.43;;;8.50;99.90;;;;;;9843470;30;20028;-84
2022/09/18 22:22:12;;;;;;;100.03;44.27;;;8.50;99.90;;;;;;9860394;30;20035;-83
2022/09/18 22:27:13;;;;;;;42.83;21.87;;;8.50;99.90;;;;;;9858178;30;20124;-84
2022/09/18 22:32:13;;;;;;;32.73;18.10;;;8.50;99.90;;;;;;9838464;30;20036;-84
2022/09/18 22:37:14;;;;;;;31.73;15.67;;;8.50;99.90;;;;;;9859173;30;20028;-83
2022/09/18 22:42:15;;;;;;;30.77;14.87;;;8.50;99.90;;;;;;9836623;30;20353;-83
2022/09/18 22:47:16;;;;;;;37.23;16.90;;;8.60;99.90;;;;;;9857506;30;20101;-84
2022/09/18 22:52:16;;;;;;;42.30;19.47;;;8.60;99.90;;;;;;9843219;30;20027;-83
2022/09/18 22:57:17;;;;;;;27.73;14.47;;;8.60;99.90;;;;;;9859007;30;20089;-84
2022/09/18 23:02:18;;;;;;;28.60;13.77;;;8.60;99.90;;;;;;9839796;30;20043;-86
2022/09/18 23:07:19;;;;;;;32.47;15.13;;;8.70;99.90;;;;;;9841309;30;20083;-85
2022/09/18 23:12:19;;;;;;;34.67;17.63;;;8.80;99.90;;;;;;9858161;30;20122;-84
2022/09/18 23:17:21;;;;;;;33.07;15.50;;;8.70;99.90;;;;;;9857389;30;20039;-84
2022/09/18 23:22:22;;;;;;;27.67;13.00;;;8.70;99.90;;;;;;9856536;30;20117;-85
2022/09/18 23:27:23;;;;;;;20.17;10.00;;;8.70;99.90;;;;;;9840301;30;20631;-86
2022/09/18 23:32:23;;;;;;;21.97;11.80;;;8.60;99.90;;;;;;9840560;30;20138;-84
2022/09/18 23:37:24;;;;;;;19.90;10.30;;;8.50;99.90;;;;;;9865103;30;20485;-85
2022/09/18 23:42:25;;;;;;;19.27;9.77;;;8.40;99.90;;;;;;9863231;30;20600;-85
2022/09/18 23:47:26;;;;;;;27.70;13.37;;;8.30;99.90;;;;;;9862598;30;20263;-85
2022/09/18 23:52:26;;;;;;;11.70;5.53;;;8.20;99.90;;;;;;9865958;30;20040;-84
2022/09/18 23:57:29;;;;;;;14.67;6.63;;;8.10;99.90;;;;;;9864738;30;20039;-85
